Terminal Aerodrome Forecast
Issued by NWS Charleston, SC

Home | Current Version | Previous Version | Text Only | Print | Product List | Glossary On
Versions: 1 2 3 4 5 6 7 8 9 10 11 12 13 14 15 16 17 18 19 20 21 22 23 24 25 26
000
FTUS42 KCHS 071123
TAFSAV
TAF
KSAV 071123Z 0712/0812 VRB04KT P6SM FEW045 SCT250
     FM071700 16006KT P6SM VCTS SCT045CB
     FM072100 16007KT P6SM FEW045 SCT150
     FM080200 VRB03KT P6SM FEW060=

USA.gov is the U.S. government's official web portal to all federal, state and local government web resources and services.